sensor_id;sensor_type;location;lat;lon;timestamp;pressure;altitude;pressure_sealevel;temperature;humidity
47983;BME280;33751;50.816;-1.214;2023-04-24T00:00:18;100623.38;;;24.28;100.00
47983;BME280;33751;50.816;-1.214;2023-04-24T00:02:45;100623.34;;;23.86;100.00
47983;BME280;33751;50.816;-1.214;2023-04-24T00:05:13;100621.23;;;23.77;100.00
47983;BME280;33751;50.816;-1.214;2023-04-24T00:07:40;100622.48;;;23.86;100.00
47983;BME280;33751;50.816;-1.214;2023-04-24T00:10:08;100624.87;;;23.96;100.00
47983;BME280;33751;50.816;-1.214;2023-04-24T00:12:36;100622.06;;;24.29;100.00
47983;BME280;33751;50.816;-1.214;2023-04-24T00:15:04;100622.73;;;23.82;100.00
47983;BME280;33751;50.816;-1.214;2023-04-24T00:17:31;100624.25;;;23.99;100.00
47983;BME280;33751;50.816;-1.214;2023-04-24T00:19:59;100623.72;;;24.22;100.00
47983;BME280;33751;50.816;-1.214;2023-04-24T00:22:27;100627.16;;;23.77;100.00
47983;BME280;33751;50.816;-1.214;2023-04-24T00:24:54;100633.83;;;24.02;100.00
47983;BME280;33751;50.816;-1.214;2023-04-24T00:27:21;100635.43;;;24.14;100.00
47983;BME280;33751;50.816;-1.214;2023-04-24T00:29:48;100632.67;;;24.16;100.00
47983;BME280;33751;50.816;-1.214;2023-04-24T00:32:15;100634.93;;;23.66;100.00
47983;BME280;33751;50.816;-1.214;2023-04-24T00:34:42;100637.92;;;24.06;100.00
47983;BME280;33751;50.816;-1.214;2023-04-24T00:37:08;100637.79;;;24.11;100.00
47983;BME280;33751;50.816;-1.214;2023-04-24T00:39:35;100637.22;;;24.19;100.00
47983;BME280;33751;50.816;-1.214;2023-04-24T00:42:02;100642.62;;;23.84;100.00
47983;BME280;33751;50.816;-1.214;2023-04-24T00:44:29;100644.47;;;24.01;100.00
47983;BME280;33751;50.816;-1.214;2023-04-24T00:46:56;100639.53;;;23.90;100.00
47983;BME280;33751;50.816;-1.214;2023-04-24T00:49:25;100641.21;;;23.65;100.00
47983;BME280;33751;50.816;-1.214;2023-04-24T00:51:51;100642.58;;;24.11;100.00
47983;BME280;33751;50.816;-1.214;2023-04-24T00:54:18;100641.65;;;23.96;100.00
47983;BME280;33751;50.816;-1.214;2023-04-24T00:56:45;100639.82;;;23.74;100.00
47983;BME280;33751;50.816;-1.214;2023-04-24T00:59:12;100640.17;;;23.99;100.00
47983;BME280;33751;50.816;-1.214;2023-04-24T01:01:39;100640.03;;;23.81;100.00
47983;BME280;33751;50.816;-1.214;2023-04-24T01:04:07;100643.74;;;23.80;100.00
47983;BME280;33751;50.816;-1.214;2023-04-24T01:06:34;100648.52;;;23.78;100.00
47983;BME280;33751;50.816;-1.214;2023-04-24T01:09:00;100653.77;;;23.51;100.00
47983;BME280;33751;50.816;-1.214;2023-04-24T01:11:27;100656.32;;;23.94;100.00
47983;BME280;33751;50.816;-1.214;2023-04-24T01:13:54;100663.04;;;23.99;100.00
47983;BME280;33751;50.816;-1.214;2023-04-24T01:16:21;100664.10;;;23.74;100.00
47983;BME280;33751;50.816;-1.214;2023-04-24T01:18:48;100663.89;;;23.99;100.00
47983;BME280;33751;50.816;-1.214;2023-04-24T01:21:16;100666.75;;;24.02;100.00
47983;BME280;33751;50.816;-1.214;2023-04-24T01:23:43;100670.79;;;23.94;100.00
47983;BME280;33751;50.816;-1.214;2023-04-24T01:26:09;100674.27;;;23.95;100.00
47983;BME280;33751;50.816;-1.214;2023-04-24T01:28:37;100676.37;;;23.98;100.00
47983;BME280;33751;50.816;-1.214;2023-04-24T01:31:04;100680.45;;;23.46;100.00
47983;BME280;33751;50.816;-1.214;2023-04-24T01:33:31;100683.42;;;23.63;100.00
47983;BME280;33751;50.816;-1.214;2023-04-24T01:35:58;100680.78;;;23.53;100.00
47983;BME280;33751;50.816;-1.214;2023-04-24T01:38:26;100679.02;;;23.83;100.00
47983;BME280;33751;50.816;-1.214;2023-04-24T01:40:54;100677.02;;;23.57;100.00
47983;BME280;33751;50.816;-1.214;2023-04-24T01:43:21;100678.11;;;23.68;100.00
47983;BME280;33751;50.816;-1.214;2023-04-24T01:45:47;100681.40;;;23.65;100.00
47983;BME280;33751;50.816;-1.214;2023-04-24T01:48:14;100680.67;;;23.71;100.00
47983;BME280;33751;50.816;-1.214;2023-04-24T01:50:41;100681.26;;;23.63;100.00
47983;BME280;33751;50.816;-1.214;2023-04-24T01:53:08;100683.09;;;23.83;100.00
47983;BME280;33751;50.816;-1.214;2023-04-24T01:55:34;100684.34;;;23.61;100.00
47983;BME280;33751;50.816;-1.214;2023-04-24T01:58:01;100685.02;;;23.90;100.00
47983;BME280;33751;50.816;-1.214;2023-04-24T02:00:28;100686.02;;;23.55;100.00
47983;BME280;33751;50.816;-1.214;2023-04-24T02:02:54;100685.19;;;23.54;100.00
47983;BME280;33751;50.816;-1.214;2023-04-24T02:05:21;100684.79;;;23.48;100.00
47983;BME280;33751;50.816;-1.214;2023-04-24T02:07:48;100684.23;;;23.48;100.00
47983;BME280;33751;50.816;-1.214;2023-04-24T02:10:14;100687.06;;;23.53;100.00
47983;BME280;33751;50.816;-1.214;2023-04-24T02:12:41;100694.60;;;24.08;100.00
47983;BME280;33751;50.816;-1.214;2023-04-24T02:15:08;100692.38;;;24.18;100.00
47983;BME280;33751;50.816;-1.214;2023-04-24T02:17:35;100694.37;;;24.17;100.00
47983;BME280;33751;50.816;-1.214;2023-04-24T02:20:01;100699.16;;;24.20;100.00
47983;BME280;33751;50.816;-1.214;2023-04-24T02:22:28;100707.49;;;24.20;100.00
47983;BME280;33751;50.816;-1.214;2023-04-24T02:24:55;100713.38;;;24.29;100.00
47983;BME280;33751;50.816;-1.214;2023-04-24T02:27:21;100712.74;;;24.23;100.00
47983;BME280;33751;50.816;-1.214;2023-04-24T02:29:49;100714.52;;;24.45;100.00
47983;BME280;33751;50.816;-1.214;2023-04-24T02:32:16;100715.51;;;24.42;100.00
47983;BME280;33751;50.816;-1.214;2023-04-24T02:34:42;100717.79;;;23.87;100.00
47983;BME280;33751;50.816;-1.214;2023-04-24T02:37:09;100722.08;;;23.98;100.00
47983;BME280;33751;50.816;-1.214;2023-04-24T02:39:35;100721.16;;;24.26;100.00
47983;BME280;33751;50.816;-1.214;2023-04-24T02:42:02;100720.86;;;24.50;100.00
47983;BME280;33751;50.816;-1.214;2023-04-24T02:44:28;100720.46;;;24.14;100.00
47983;BME280;33751;50.816;-1.214;2023-04-24T02:46:55;100724.89;;;24.14;100.00
47983;BME280;33751;50.816;-1.214;2023-04-24T02:49:21;100729.49;;;24.10;100.00
47983;BME280;33751;50.816;-1.214;2023-04-24T02:51:48;100731.34;;;24.06;100.00
47983;BME280;33751;50.816;-1.214;2023-04-24T02:54:15;100735.25;;;24.28;100.00
47983;BME280;33751;50.816;-1.214;2023-04-24T02:56:41;100741.88;;;24.05;100.00
47983;BME280;33751;50.816;-1.214;2023-04-24T02:59:09;100742.91;;;23.88;100.00
47983;BME280;33751;50.816;-1.214;2023-04-24T03:01:36;100744.73;;;23.89;100.00
47983;BME280;33751;50.816;-1.214;2023-04-24T03:04:02;100753.71;;;23.87;100.00
47983;BME280;33751;50.816;-1.214;2023-04-24T03:06:29;100760.55;;;23.83;100.00
47983;BME280;33751;50.816;-1.214;2023-04-24T03:08:55;100764.34;;;24.40;100.00
47983;BME280;33751;50.816;-1.214;2023-04-24T03:11:22;100773.07;;;23.88;100.00
47983;BME280;33751;50.816;-1.214;2023-04-24T03:13:48;100775.21;;;23.93;100.00
47983;BME280;33751;50.816;-1.214;2023-04-24T03:16:16;100778.36;;;23.99;100.00
47983;BME280;33751;50.816;-1.214;2023-04-24T03:18:42;100779.40;;;23.87;100.00
47983;BME280;33751;50.816;-1.214;2023-04-24T03:21:09;100779.34;;;24.18;100.00
47983;BME280;33751;50.816;-1.214;2023-04-24T03:23:35;100780.91;;;23.86;100.00
47983;BME280;33751;50.816;-1.214;2023-04-24T03:26:02;100778.90;;;24.25;100.00
47983;BME280;33751;50.816;-1.214;2023-04-24T03:28:29;100778.13;;;23.80;100.00
47983;BME280;33751;50.816;-1.214;2023-04-24T03:30:56;100779.29;;;24.29;100.00
47983;BME280;33751;50.816;-1.214;2023-04-24T03:33:22;100777.14;;;23.38;100.00
47983;BME280;33751;50.816;-1.214;2023-04-24T03:35:49;100777.66;;;23.81;100.00
47983;BME280;33751;50.816;-1.214;2023-04-24T03:38:15;100776.98;;;24.01;100.00
47983;BME280;33751;50.816;-1.214;2023-04-24T03:40:42;100771.94;;;23.98;100.00
47983;BME280;33751;50.816;-1.214;2023-04-24T03:43:08;100768.39;;;24.32;100.00
47983;BME280;33751;50.816;-1.214;2023-04-24T03:45:35;100765.78;;;24.13;100.00
47983;BME280;33751;50.816;-1.214;2023-04-24T03:48:02;100770.82;;;23.82;100.00
47983;BME280;33751;50.816;-1.214;2023-04-24T03:50:30;100770.77;;;24.02;100.00
47983;BME280;33751;50.816;-1.214;2023-04-24T03:52:56;100774.97;;;23.98;100.00
47983;BME280;33751;50.816;-1.214;2023-04-24T03:55:23;100775.77;;;23.69;100.00
47983;BME280;33751;50.816;-1.214;2023-04-24T03:57:49;100777.60;;;23.66;100.00
47983;BME280;33751;50.816;-1.214;2023-04-24T04:00:16;100781.44;;;24.12;100.00
47983;BME280;33751;50.816;-1.214;2023-04-24T04:02:42;100785.46;;;23.84;100.00
47983;BME280;33751;50.816;-1.214;2023-04-24T04:05:09;100781.56;;;23.54;100.00
47983;BME280;33751;50.816;-1.214;2023-04-24T04:07:35;100776.65;;;23.79;100.00
47983;BME280;33751;50.816;-1.214;2023-04-24T04:10:02;100779.71;;;23.72;100.00
47983;BME280;33751;50.816;-1.214;2023-04-24T04:12:29;100782.40;;;23.42;100.00
47983;BME280;33751;50.816;-1.214;2023-04-24T04:14:56;100780.28;;;23.48;100.00
47983;BME280;33751;50.816;-1.214;2023-04-24T04:17:23;100778.70;;;23.45;100.00
47983;BME280;33751;50.816;-1.214;2023-04-24T04:19:50;100774.82;;;23.78;100.00
47983;BME280;33751;50.816;-1.214;2023-04-24T04:22:17;100775.30;;;23.70;100.00
47983;BME280;33751;50.816;-1.214;2023-04-24T04:24:43;100776.47;;;23.38;100.00
47983;BME280;33751;50.816;-1.214;2023-04-24T04:27:10;100780.03;;;23.81;100.00
47983;BME280;33751;50.816;-1.214;2023-04-24T04:29:36;100781.12;;;23.45;100.00
47983;BME280;33751;50.816;-1.214;2023-04-24T04:32:03;100781.84;;;23.55;100.00
47983;BME280;33751;50.816;-1.214;2023-04-24T04:34:29;100786.04;;;23.46;100.00
47983;BME280;33751;50.816;-1.214;2023-04-24T04:36:56;100784.91;;;23.60;100.00
47983;BME280;33751;50.816;-1.214;2023-04-24T04:39:23;100789.01;;;23.69;100.00
47983;BME280;33751;50.816;-1.214;2023-04-24T04:41:50;100789.15;;;23.85;100.00
47983;BME280;33751;50.816;-1.214;2023-04-24T04:44:16;100788.44;;;23.83;100.00
47983;BME280;33751;50.816;-1.214;2023-04-24T04:46:44;100787.18;;;23.71;100.00
47983;BME280;33751;50.816;-1.214;2023-04-24T04:49:11;100789.43;;;23.47;100.00
47983;BME280;33751;50.816;-1.214;2023-04-24T04:51:38;100793.30;;;23.67;100.00
47983;BME280;33751;50.816;-1.214;2023-04-24T04:54:05;100795.48;;;23.65;100.00
47983;BME280;33751;50.816;-1.214;2023-04-24T04:56:31;100798.82;;;23.65;100.00
47983;BME280;33751;50.816;-1.214;2023-04-24T04:58:58;100795.35;;;23.63;100.00
47983;BME280;33751;50.816;-1.214;2023-04-24T05:01:25;100789.74;;;23.67;100.00
47983;BME280;33751;50.816;-1.214;2023-04-24T05:03:52;100788.51;;;23.51;100.00
47983;BME280;33751;50.816;-1.214;2023-04-24T05:06:19;100794.78;;;23.52;100.00
47983;BME280;33751;50.816;-1.214;2023-04-24T05:08:46;100795.41;;;23.49;100.00
47983;BME280;33751;50.816;-1.214;2023-04-24T05:11:12;100796.94;;;23.51;100.00
47983;BME280;33751;50.816;-1.214;2023-04-24T05:13:40;100801.25;;;23.78;100.00
47983;BME280;33751;50.816;-1.214;2023-04-24T05:16:07;100808.07;;;23.58;100.00
47983;BME280;33751;50.816;-1.214;2023-04-24T05:18:34;100811.24;;;23.65;100.00
47983;BME280;33751;50.816;-1.214;2023-04-24T05:21:01;100816.32;;;24.12;100.00
47983;BME280;33751;50.816;-1.214;2023-04-24T05:23:27;100817.52;;;24.41;100.00
47983;BME280;33751;50.816;-1.214;2023-04-24T05:25:54;100825.68;;;24.64;100.00
47983;BME280;33751;50.816;-1.214;2023-04-24T05:28:20;100825.17;;;25.06;100.00
47983;BME280;33751;50.816;-1.214;2023-04-24T05:30:47;100827.01;;;24.92;100.00
47983;BME280;33751;50.816;-1.214;2023-04-24T05:33:14;100831.53;;;24.49;100.00
47983;BME280;33751;50.816;-1.214;2023-04-24T05:35:41;100831.08;;;25.11;100.00
47983;BME280;33751;50.816;-1.214;2023-04-24T05:38:08;100833.70;;;25.54;100.00
47983;BME280;33751;50.816;-1.214;2023-04-24T05:40:34;100838.71;;;25.80;100.00
47983;BME280;33751;50.816;-1.214;2023-04-24T05:43:01;100841.66;;;26.19;100.00
47983;BME280;33751;50.816;-1.214;2023-04-24T05:45:27;100847.65;;;26.30;100.00
47983;BME280;33751;50.816;-1.214;2023-04-24T05:47:54;100847.12;;;26.72;100.00
47983;BME280;33751;50.816;-1.214;2023-04-24T05:50:22;100848.80;;;26.50;100.00
47983;BME280;33751;50.816;-1.214;2023-04-24T05:52:48;100849.30;;;27.25;100.00
47983;BME280;33751;50.816;-1.214;2023-04-24T05:55:15;100853.46;;;27.11;100.00
47983;BME280;33751;50.816;-1.214;2023-04-24T05:57:42;100858.23;;;27.42;100.00
47983;BME280;33751;50.816;-1.214;2023-04-24T06:00:10;100860.04;;;27.73;100.00
47983;BME280;33751;50.816;-1.214;2023-04-24T06:02:38;100870.19;;;28.14;100.00
47983;BME280;33751;50.816;-1.214;2023-04-24T06:05:06;100873.56;;;28.48;100.00
47983;BME280;33751;50.816;-1.214;2023-04-24T06:07:32;100875.06;;;28.44;100.00
47983;BME280;33751;50.816;-1.214;2023-04-24T06:09:59;100875.98;;;28.64;100.00
47983;BME280;33751;50.816;-1.214;2023-04-24T06:12:26;100878.25;;;28.65;100.00
47983;BME280;33751;50.816;-1.214;2023-04-24T06:14:53;100881.52;;;28.80;100.00
47983;BME280;33751;50.816;-1.214;2023-04-24T06:17:19;100888.11;;;29.58;100.00
47983;BME280;33751;50.816;-1.214;2023-04-24T06:19:46;100891.57;;;29.30;100.00
47983;BME280;33751;50.816;-1.214;2023-04-24T06:22:12;100888.90;;;29.73;100.00
47983;BME280;33751;50.816;-1.214;2023-04-24T06:24:40;100893.24;;;29.60;100.00
47983;BME280;33751;50.816;-1.214;2023-04-24T06:27:07;100895.85;;;29.74;100.00
47983;BME280;33751;50.816;-1.214;2023-04-24T06:29:35;100898.15;;;29.88;100.00
47983;BME280;33751;50.816;-1.214;2023-04-24T06:32:02;100900.10;;;29.76;100.00
47983;BME280;33751;50.816;-1.214;2023-04-24T06:34:29;100903.25;;;29.81;100.00
47983;BME280;33751;50.816;-1.214;2023-04-24T06:36:56;100901.20;;;29.91;100.00
47983;BME280;33751;50.816;-1.214;2023-04-24T06:39:23;100899.72;;;29.83;100.00
47983;BME280;33751;50.816;-1.214;2023-04-24T06:41:50;100900.96;;;30.36;100.00
47983;BME280;33751;50.816;-1.214;2023-04-24T06:44:17;100898.70;;;30.48;100.00
47983;BME280;33751;50.816;-1.214;2023-04-24T06:46:44;100896.71;;;30.41;100.00
47983;BME280;33751;50.816;-1.214;2023-04-24T06:49:11;100890.94;;;30.48;100.00
47983;BME280;33751;50.816;-1.214;2023-04-24T06:51:37;100893.59;;;30.33;100.00
47983;BME280;33751;50.816;-1.214;2023-04-24T06:54:04;100899.50;;;30.21;100.00
47983;BME280;33751;50.816;-1.214;2023-04-24T06:56:30;100906.80;;;30.42;100.00
47983;BME280;33751;50.816;-1.214;2023-04-24T06:58:57;100906.76;;;30.25;100.00
47983;BME280;33751;50.816;-1.214;2023-04-24T07:01:24;100904.21;;;29.75;100.00
47983;BME280;33751;50.816;-1.214;2023-04-24T07:03:51;100899.88;;;29.96;100.00
47983;BME280;33751;50.816;-1.214;2023-04-24T07:06:18;100898.58;;;29.81;100.00
47983;BME280;33751;50.816;-1.214;2023-04-24T07:08:45;100897.56;;;29.83;100.00
47983;BME280;33751;50.816;-1.214;2023-04-24T07:11:12;100899.11;;;29.94;100.00
47983;BME280;33751;50.816;-1.214;2023-04-24T07:13:39;100898.82;;;30.46;100.00
47983;BME280;33751;50.816;-1.214;2023-04-24T07:16:05;100903.06;;;30.71;100.00
47983;BME280;33751;50.816;-1.214;2023-04-24T07:18:33;100897.14;;;31.11;100.00
47983;BME280;33751;50.816;-1.214;2023-04-24T07:21:00;100902.53;;;30.56;100.00
47983;BME280;33751;50.816;-1.214;2023-04-24T07:23:26;100897.51;;;31.15;100.00
47983;BME280;33751;50.816;-1.214;2023-04-24T07:25:53;100895.73;;;31.83;100.00
47983;BME280;33751;50.816;-1.214;2023-04-24T07:28:19;100893.38;;;31.50;100.00
47983;BME280;33751;50.816;-1.214;2023-04-24T07:30:46;100894.60;;;30.79;100.00
47983;BME280;33751;50.816;-1.214;2023-04-24T07:33:12;100903.41;;;30.11;100.00
47983;BME280;33751;50.816;-1.214;2023-04-24T07:35:39;100901.19;;;30.08;100.00
47983;BME280;33751;50.816;-1.214;2023-04-24T07:38:05;100906.27;;;30.06;100.00
47983;BME280;33751;50.816;-1.214;2023-04-24T07:40:32;100912.20;;;30.15;100.00
47983;BME280;33751;50.816;-1.214;2023-04-24T07:42:59;100908.96;;;30.25;100.00
47983;BME280;33751;50.816;-1.214;2023-04-24T07:45:25;100904.59;;;30.83;100.00
47983;BME280;33751;50.816;-1.214;2023-04-24T07:47:53;100906.62;;;31.67;100.00
47983;BME280;33751;50.816;-1.214;2023-04-24T07:50:20;100908.49;;;32.57;100.00
47983;BME280;33751;50.816;-1.214;2023-04-24T07:52:48;100903.02;;;32.62;100.00
47983;BME280;33751;50.816;-1.214;2023-04-24T07:55:15;100902.76;;;32.89;100.00
47983;BME280;33751;50.816;-1.214;2023-04-24T07:57:42;100906.65;;;32.78;100.00
47983;BME280;33751;50.816;-1.214;2023-04-24T08:00:10;100911.71;;;33.11;100.00
47983;BME280;33751;50.816;-1.214;2023-04-24T08:02:37;100913.39;;;32.62;100.00
47983;BME280;33751;50.816;-1.214;2023-04-24T08:05:05;100910.95;;;32.99;100.00
47983;BME280;33751;50.816;-1.214;2023-04-24T08:07:33;100909.23;;;33.15;100.00
47983;BME280;33751;50.816;-1.214;2023-04-24T08:10:00;100908.06;;;33.82;100.00
47983;BME280;33751;50.816;-1.214;2023-04-24T08:12:28;100907.58;;;33.40;100.00
47983;BME280;33751;50.816;-1.214;2023-04-24T08:14:55;100908.17;;;33.82;100.00
47983;BME280;33751;50.816;-1.214;2023-04-24T08:17:21;100904.92;;;33.64;100.00
47983;BME280;33751;50.816;-1.214;2023-04-24T08:19:48;100906.16;;;33.38;100.00
47983;BME280;33751;50.816;-1.214;2023-04-24T08:22:14;100912.22;;;32.14;100.00
47983;BME280;33751;50.816;-1.214;2023-04-24T08:24:41;100917.07;;;32.48;100.00
47983;BME280;33751;50.816;-1.214;2023-04-24T08:27:08;100912.51;;;33.45;100.00
47983;BME280;33751;50.816;-1.214;2023-04-24T08:29:35;100908.78;;;33.16;100.00
47983;BME280;33751;50.816;-1.214;2023-04-24T08:32:02;100907.32;;;31.99;100.00
47983;BME280;33751;50.816;-1.214;2023-04-24T08:34:29;100910.06;;;31.16;100.00
47983;BME280;33751;50.816;-1.214;2023-04-24T08:36:57;100910.72;;;31.12;100.00
47983;BME280;33751;50.816;-1.214;2023-04-24T08:39:24;100916.04;;;30.90;100.00
47983;BME280;33751;50.816;-1.214;2023-04-24T08:41:52;100912.39;;;32.01;100.00
47983;BME280;33751;50.816;-1.214;2023-04-24T08:44:21;100913.67;;;31.70;100.00
47983;BME280;33751;50.816;-1.214;2023-04-24T08:46:48;100911.41;;;31.24;100.00
47983;BME280;33751;50.816;-1.214;2023-04-24T08:49:17;100913.78;;;30.71;100.00
47983;BME280;33751;50.816;-1.214;2023-04-24T08:51:45;100912.75;;;31.24;100.00
47983;BME280;33751;50.816;-1.214;2023-04-24T08:54:12;100912.93;;;31.17;100.00
47983;BME280;33751;50.816;-1.214;2023-04-24T08:56:40;100919.41;;;31.87;100.00
47983;BME280;33751;50.816;-1.214;2023-04-24T08:59:10;100919.73;;;32.98;100.00
47983;BME280;33751;50.816;-1.214;2023-04-24T09:01:38;100920.49;;;33.01;100.00
47983;BME280;33751;50.816;-1.214;2023-04-24T09:04:08;100925.15;;;31.18;100.00
47983;BME280;33751;50.816;-1.214;2023-04-24T09:06:35;100933.95;;;29.84;100.00
47983;BME280;33751;50.816;-1.214;2023-04-24T09:09:02;100924.95;;;30.66;100.00
47983;BME280;33751;50.816;-1.214;2023-04-24T09:11:30;100929.48;;;29.72;100.00
47983;BME280;33751;50.816;-1.214;2023-04-24T09:13:58;100931.12;;;28.78;100.00
47983;BME280;33751;50.816;-1.214;2023-04-24T09:16:25;100930.59;;;28.38;100.00
47983;BME280;33751;50.816;-1.214;2023-04-24T09:18:53;100931.26;;;29.03;100.00
47983;BME280;33751;50.816;-1.214;2023-04-24T09:21:21;100930.86;;;30.06;100.00
47983;BME280;33751;50.816;-1.214;2023-04-24T09:23:58;100933.47;;;30.59;100.00
47983;BME280;33751;50.816;-1.214;2023-04-24T09:26:25;100934.35;;;29.64;100.00
47983;BME280;33751;50.816;-1.214;2023-04-24T09:28:53;100934.36;;;29.48;100.00
47983;BME280;33751;50.816;-1.214;2023-04-24T09:31:21;100936.30;;;29.66;100.00
47983;BME280;33751;50.816;-1.214;2023-04-24T09:33:54;100937.13;;;28.93;100.00
47983;BME280;33751;50.816;-1.214;2023-04-24T09:36:28;100941.99;;;29.58;100.00
47983;BME280;33751;50.816;-1.214;2023-04-24T09:38:58;100940.22;;;29.13;100.00
47983;BME280;33751;50.816;-1.214;2023-04-24T09:41:26;100939.82;;;28.69;100.00
47983;BME280;33751;50.816;-1.214;2023-04-24T09:43:54;100941.14;;;28.38;100.00
47983;BME280;33751;50.816;-1.214;2023-04-24T09:46:21;100941.08;;;28.32;100.00
47983;BME280;33751;50.816;-1.214;2023-04-24T09:48:55;100943.06;;;28.29;100.00
47983;BME280;33751;50.816;-1.214;2023-04-24T09:51:33;100944.08;;;28.29;100.00
47983;BME280;33751;50.816;-1.214;2023-04-24T09:54:00;100951.94;;;28.25;100.00
47983;BME280;33751;50.816;-1.214;2023-04-24T09:56:27;100948.95;;;27.82;100.00
47983;BME280;33751;50.816;-1.214;2023-04-24T09:58:54;100953.30;;;27.76;100.00
47983;BME280;33751;50.816;-1.214;2023-04-24T10:01:30;100956.51;;;27.99;100.00
47983;BME280;33751;50.816;-1.214;2023-04-24T10:03:57;100958.85;;;28.34;100.00
47983;BME280;33751;50.816;-1.214;2023-04-24T10:06:31;100958.16;;;27.84;100.00
47983;BME280;33751;50.816;-1.214;2023-04-24T10:08:58;100959.17;;;27.52;100.00
47983;BME280;33751;50.816;-1.214;2023-04-24T10:11:26;100964.12;;;26.83;100.00
47983;BME280;33751;50.816;-1.214;2023-04-24T10:13:53;100966.61;;;27.15;100.00
47983;BME280;33751;50.816;-1.214;2023-04-24T10:16:22;100963.94;;;26.87;100.00
47983;BME280;33751;50.816;-1.214;2023-04-24T10:18:49;100964.99;;;26.64;100.00
47983;BME280;33751;50.816;-1.214;2023-04-24T10:21:17;100961.32;;;26.53;100.00
47983;BME280;33751;50.816;-1.214;2023-04-24T10:23:44;100961.08;;;26.39;100.00
47983;BME280;33751;50.816;-1.214;2023-04-24T10:26:12;100962.69;;;26.63;100.00
47983;BME280;33751;50.816;-1.214;2023-04-24T10:28:39;100965.89;;;26.52;100.00
47983;BME280;33751;50.816;-1.214;2023-04-24T10:31:09;100968.68;;;26.23;100.00
47983;BME280;33751;50.816;-1.214;2023-04-24T10:33:36;100970.29;;;26.49;100.00
47983;BME280;33751;50.816;-1.214;2023-04-24T10:36:04;100968.96;;;26.43;100.00
47983;BME280;33751;50.816;-1.214;2023-04-24T10:38:31;100968.81;;;25.97;100.00
47983;BME280;33751;50.816;-1.214;2023-04-24T10:41:07;100961.13;;;26.10;100.00
47983;BME280;33751;50.816;-1.214;2023-04-24T10:43:35;100956.98;;;26.71;100.00
47983;BME280;33751;50.816;-1.214;2023-04-24T10:46:03;100962.03;;;26.36;100.00
47983;BME280;33751;50.816;-1.214;2023-04-24T10:48:31;100963.62;;;26.12;100.00
47983;BME280;33751;50.816;-1.214;2023-04-24T10:50:58;100963.38;;;26.07;100.00
47983;BME280;33751;50.816;-1.214;2023-04-24T10:53:28;100960.99;;;26.22;100.00
47983;BME280;33751;50.816;-1.214;2023-04-24T10:55:58;100962.05;;;26.12;100.00
47983;BME280;33751;50.816;-1.214;2023-04-24T10:58:37;100965.47;;;25.92;100.00
47983;BME280;33751;50.816;-1.214;2023-04-24T11:01:05;100961.08;;;26.12;100.00
47983;BME280;33751;50.816;-1.214;2023-04-24T11:03:34;100962.43;;;26.08;100.00
47983;BME280;33751;50.816;-1.214;2023-04-24T11:06:02;100962.95;;;25.91;100.00
47983;BME280;33751;50.816;-1.214;2023-04-24T11:08:31;100959.92;;;26.07;100.00
47983;BME280;33751;50.816;-1.214;2023-04-24T11:11:02;100957.35;;;25.95;100.00
47983;BME280;33751;50.816;-1.214;2023-04-24T11:14:04;100955.95;;;26.33;100.00
47983;BME280;33751;50.816;-1.214;2023-04-24T11:16:32;100952.69;;;26.23;100.00
47983;BME280;33751;50.816;-1.214;2023-04-24T11:19:01;100949.28;;;26.60;100.00
47983;BME280;33751;50.816;-1.214;2023-04-24T11:21:31;100947.87;;;26.70;100.00
47983;BME280;33751;50.816;-1.214;2023-04-24T11:23:58;100942.07;;;26.38;100.00
47983;BME280;33751;50.816;-1.214;2023-04-24T11:26:25;100940.87;;;26.49;100.00
47983;BME280;33751;50.816;-1.214;2023-04-24T11:28:52;100940.20;;;26.32;100.00
47983;BME280;33751;50.816;-1.214;2023-04-24T11:31:35;100938.17;;;26.39;100.00
47983;BME280;33751;50.816;-1.214;2023-04-24T11:34:07;100935.19;;;26.31;100.00
47983;BME280;33751;50.816;-1.214;2023-04-24T11:36:36;100936.00;;;26.26;100.00
47983;BME280;33751;50.816;-1.214;2023-04-24T11:39:03;100934.85;;;26.17;100.00
47983;BME280;33751;50.816;-1.214;2023-04-24T11:41:30;100929.61;;;26.38;100.00
47983;BME280;33751;50.816;-1.214;2023-04-24T11:43:58;100933.29;;;26.53;100.00
47983;BME280;33751;50.816;-1.214;2023-04-24T11:46:28;100932.45;;;25.98;100.00
47983;BME280;33751;50.816;-1.214;2023-04-24T11:48:55;100934.58;;;26.18;100.00
47983;BME280;33751;50.816;-1.214;2023-04-24T11:51:23;100933.14;;;25.90;100.00
47983;BME280;33751;50.816;-1.214;2023-04-24T11:53:50;100930.66;;;26.35;100.00
47983;BME280;33751;50.816;-1.214;2023-04-24T11:56:17;100921.72;;;26.33;100.00
47983;BME280;33751;50.816;-1.214;2023-04-24T11:58:44;100918.74;;;25.97;100.00
47983;BME280;33751;50.816;-1.214;2023-04-24T12:01:11;100913.57;;;26.50;100.00
47983;BME280;33751;50.816;-1.214;2023-04-24T12:03:37;100915.65;;;26.19;100.00
47983;BME280;33751;50.816;-1.214;2023-04-24T12:06:05;100921.38;;;26.29;100.00
47983;BME280;33751;50.816;-1.214;2023-04-24T12:08:32;100920.24;;;26.33;100.00
47983;BME280;33751;50.816;-1.214;2023-04-24T12:11:00;100919.87;;;26.28;100.00
47983;BME280;33751;50.816;-1.214;2023-04-24T12:13:27;100923.86;;;26.19;100.00
47983;BME280;33751;50.816;-1.214;2023-04-24T12:15:54;100923.60;;;26.13;100.00
47983;BME280;33751;50.816;-1.214;2023-04-24T12:18:22;100925.75;;;26.04;100.00
47983;BME280;33751;50.816;-1.214;2023-04-24T12:20:49;100925.85;;;25.56;100.00
47983;BME280;33751;50.816;-1.214;2023-04-24T12:23:16;100922.01;;;26.10;100.00
47983;BME280;33751;50.816;-1.214;2023-04-24T12:25:44;100922.21;;;25.98;100.00
47983;BME280;33751;50.816;-1.214;2023-04-24T12:28:11;100921.54;;;26.17;100.00
47983;BME280;33751;50.816;-1.214;2023-04-24T12:30:40;100920.49;;;26.43;100.00